createdAt,value
2018-10-12T00:01:27.902Z,27.13
2018-10-12T00:03:56.279Z,28.33
2018-10-12T00:06:24.632Z,28.03
2018-10-12T00:08:52.942Z,27.43
2018-10-12T00:11:21.296Z,27.90
2018-10-12T00:13:49.623Z,28.57
2018-10-12T00:16:17.998Z,34.77
2018-10-12T00:18:46.350Z,30.60
2018-10-12T00:21:14.723Z,28.47
2018-10-12T00:23:43.174Z,30.23
2018-10-12T00:26:11.566Z,28.50
2018-10-12T00:28:39.930Z,24.27
2018-10-12T00:31:08.268Z,25.63
2018-10-12T00:33:36.616Z,28.30
2018-10-12T00:36:05.037Z,33.07
2018-10-12T00:38:33.418Z,26.27
2018-10-12T00:41:01.784Z,27.03
2018-10-12T00:43:30.205Z,28.50
2018-10-12T00:45:58.637Z,29.17
2018-10-12T00:48:27.029Z,29.47
2018-10-12T00:50:55.432Z,25.43
2018-10-12T00:53:23.812Z,26.57
2018-10-12T00:55:52.163Z,27.63
2018-10-12T00:58:20.511Z,27.90
2018-10-12T01:00:48.989Z,26.63
2018-10-12T01:03:17.398Z,28.80
2018-10-12T01:05:45.810Z,25.33
2018-10-12T01:08:14.157Z,26.17
2018-10-12T01:10:42.529Z,23.13
2018-10-12T01:13:10.982Z,23.77
2018-10-12T01:15:39.362Z,27.27
2018-10-12T01:18:07.741Z,24.73
2018-10-12T01:20:36.152Z,21.70
2018-10-12T01:23:04.512Z,23.47
2018-10-12T01:25:32.860Z,25.10
2018-10-12T01:28:01.276Z,30.13
2018-10-12T01:30:29.606Z,29.43
2018-10-12T01:33:02.781Z,24.20
2018-10-12T01:35:31.184Z,24.33
2018-10-12T01:37:59.582Z,24.90
2018-10-12T01:40:28.353Z,25.10
2018-10-12T01:42:56.805Z,25.70
2018-10-12T01:45:25.170Z,22.80
2018-10-12T01:47:53.588Z,30.47
2018-10-12T01:50:21.968Z,30.37
2018-10-12T01:52:50.344Z,26.73
2018-10-12T01:55:18.740Z,27.70
2018-10-12T01:57:47.149Z,28.73
2018-10-12T02:00:15.507Z,25.10
2018-10-12T02:02:43.867Z,29.10
2018-10-12T02:05:12.269Z,27.90
2018-10-12T02:07:40.659Z,24.63
2018-10-12T02:10:09.063Z,25.30
2018-10-12T02:12:37.338Z,23.30
2018-10-12T02:15:05.927Z,27.57
2018-10-12T02:17:34.297Z,26.47
2018-10-12T02:20:02.670Z,26.33
2018-10-12T02:22:31.001Z,30.07
2018-10-12T02:24:59.328Z,24.07
2018-10-12T02:27:27.666Z,25.50
2018-10-12T02:29:56.014Z,26.90
2018-10-12T02:32:24.362Z,25.40
2018-10-12T02:34:52.798Z,26.87
2018-10-12T02:37:21.153Z,30.00
2018-10-12T02:39:49.520Z,27.00
2018-10-12T02:42:17.845Z,26.97
2018-10-12T02:44:46.216Z,30.00
2018-10-12T02:47:14.656Z,30.67
2018-10-12T02:49:43.049Z,24.57
2018-10-12T02:52:11.395Z,29.87
2018-10-12T02:54:39.754Z,31.00
2018-10-12T02:57:08.111Z,31.07
2018-10-12T02:59:36.514Z,29.23
2018-10-12T03:02:04.856Z,29.60
2018-10-12T03:04:33.177Z,28.03
2018-10-12T03:07:01.506Z,31.10
2018-10-12T03:09:29.844Z,26.40
2018-10-12T03:11:58.142Z,26.53
2018-10-12T03:14:26.521Z,26.10
2018-10-12T03:16:54.881Z,26.83
2018-10-12T03:19:23.230Z,24.97
2018-10-12T03:21:51.551Z,30.07
2018-10-12T03:24:19.905Z,30.67
2018-10-12T03:26:48.323Z,32.63
2018-10-12T03:29:16.714Z,27.63
2018-10-12T03:31:45.058Z,30.00
2018-10-12T03:34:13.376Z,36.23
2018-10-12T03:36:41.750Z,29.57
2018-10-12T03:39:10.111Z,27.50
2018-10-12T03:41:38.480Z,30.43
2018-10-12T03:44:06.861Z,27.87
2018-10-12T03:46:35.346Z,33.17
2018-10-12T03:49:03.739Z,28.00
2018-10-12T03:51:32.144Z,26.03
2018-10-12T03:54:00.764Z,26.40
2018-10-12T03:56:29.161Z,26.43
2018-10-12T03:58:57.489Z,23.60
2018-10-12T04:01:25.888Z,25.63
2018-10-12T04:03:54.259Z,29.63
2018-10-12T04:06:22.579Z,29.03
2018-10-12T04:08:50.980Z,33.73
2018-10-12T04:11:19.362Z,27.53
2018-10-12T04:13:47.710Z,28.47
2018-10-12T04:16:16.139Z,27.00
2018-10-12T04:18:44.446Z,31.63
2018-10-12T04:21:12.808Z,29.30
2018-10-12T04:23:41.115Z,26.87
2018-10-12T04:26:09.888Z,29.03
2018-10-12T04:28:38.268Z,27.37
2018-10-12T04:31:06.644Z,28.93
2018-10-12T04:33:35.009Z,27.73
2018-10-12T04:36:03.360Z,26.90
2018-10-12T04:38:43.787Z,22.57
2018-10-12T04:41:14.843Z,20.97
2018-10-12T04:43:43.834Z,29.03
2018-10-12T04:46:15.034Z,19.67
2018-10-12T04:48:44.024Z,22.27
2018-10-12T04:51:19.632Z,20.17
2018-10-12T04:53:48.197Z,24.23
2018-10-12T04:56:18.086Z,23.23
2018-10-12T04:58:46.500Z,26.23
2018-10-12T05:01:14.919Z,30.43
2018-10-12T05:03:43.349Z,27.87
2018-10-12T05:06:11.710Z,27.10
2018-10-12T05:08:40.128Z,29.00
2018-10-12T05:11:08.545Z,29.97
2018-10-12T05:13:37.190Z,27.53
2018-10-12T05:16:06.244Z,27.10
2018-10-12T05:18:34.636Z,31.43
2018-10-12T05:21:03.650Z,31.30
2018-10-12T05:23:32.017Z,24.50
2018-10-12T05:26:00.997Z,30.67
2018-10-12T05:28:30.981Z,26.80
2018-10-12T05:30:59.472Z,23.83
2018-10-12T05:33:27.818Z,23.70
2018-10-12T05:35:56.224Z,25.27
2018-10-12T05:38:25.604Z,25.10
2018-10-12T05:40:53.947Z,25.93
2018-10-12T05:43:22.393Z,23.00
2018-10-12T05:45:50.689Z,23.07
2018-10-12T05:48:30.149Z,26.03
2018-10-12T05:51:00.006Z,27.70
2018-10-12T05:53:28.735Z,26.00
2018-10-12T05:55:57.755Z,25.10
2018-10-12T05:58:26.084Z,26.23
2018-10-12T06:00:54.479Z,26.27
2018-10-12T06:03:22.897Z,21.93
2018-10-12T06:05:51.321Z,26.07
2018-10-12T06:08:19.749Z,24.80
2018-10-12T06:10:48.097Z,23.23
2018-10-12T06:13:16.448Z,27.37
2018-10-12T06:15:44.905Z,23.63
2018-10-12T06:18:13.659Z,22.93
2018-10-12T06:20:42.036Z,24.03
2018-10-12T06:23:10.406Z,24.50
2018-10-12T06:25:38.757Z,22.07
2018-10-12T06:28:07.166Z,27.00
2018-10-12T06:30:35.568Z,21.33
2018-10-12T06:33:04.114Z,22.10
2018-10-12T06:35:32.381Z,24.07
2018-10-12T06:38:00.746Z,22.90
2018-10-12T06:40:29.769Z,21.00
2018-10-12T06:42:58.146Z,17.63
2018-10-12T06:45:26.548Z,16.63
2018-10-12T06:47:54.925Z,18.53
2018-10-12T06:50:23.275Z,18.30
2018-10-12T06:52:51.728Z,13.60
2018-10-12T06:55:20.065Z,16.80
2018-10-12T06:57:48.658Z,12.07
2018-10-12T07:00:17.054Z,13.80
2018-10-12T07:02:45.405Z,18.83
2018-10-12T07:05:13.807Z,17.10
2018-10-12T07:07:42.200Z,17.30
2018-10-12T07:10:10.567Z,19.10
2018-10-12T07:12:38.912Z,15.23
2018-10-12T07:15:07.676Z,14.17
2018-10-12T07:17:36.088Z,15.80
2018-10-12T07:20:04.655Z,11.17
2018-10-12T07:22:33.157Z,13.03
2018-10-12T07:25:01.471Z,11.50
2018-10-12T07:27:29.888Z,10.13
2018-10-12T07:29:58.290Z,10.77
2018-10-12T07:32:26.626Z,11.97
2018-10-12T07:34:55.197Z,11.60
2018-10-12T07:37:23.703Z,14.03
2018-10-12T07:39:52.028Z,13.40
2018-10-12T07:42:20.426Z,11.67
2018-10-12T07:44:48.719Z,13.37
2018-10-12T07:47:17.132Z,18.37
2018-10-12T07:49:45.521Z,13.10
2018-10-12T07:52:13.879Z,12.93
2018-10-12T07:54:42.246Z,14.20
2018-10-12T07:57:10.559Z,9.83
2018-10-12T07:59:39.732Z,11.73
2018-10-12T08:02:08.982Z,10.23
2018-10-12T08:04:37.604Z,12.53
2018-10-12T08:07:06.055Z,9.00
2018-10-12T08:09:34.477Z,14.00
2018-10-12T08:12:02.927Z,11.53
2018-10-12T08:14:31.274Z,9.40
2018-10-12T08:17:00.018Z,8.43
2018-10-12T08:19:28.383Z,5.73
2018-10-12T08:21:56.785Z,6.97
2018-10-12T08:24:25.229Z,8.30
2018-10-12T08:26:53.584Z,5.10
2018-10-12T08:29:23.413Z,5.33
2018-10-12T08:31:51.771Z,9.53
2018-10-12T08:34:20.153Z,5.53
2018-10-12T08:36:48.582Z,9.00
2018-10-12T08:39:16.958Z,10.73
2018-10-12T08:41:45.360Z,6.83
2018-10-12T08:44:13.737Z,5.27
2018-10-12T08:46:42.179Z,11.03
2018-10-12T08:49:10.653Z,7.93
2018-10-12T08:51:39.028Z,4.77
2018-10-12T08:54:07.598Z,8.13
2018-10-12T08:56:35.966Z,9.40
2018-10-12T08:59:04.343Z,7.20
2018-10-12T09:01:32.750Z,4.40
2018-10-12T09:04:01.105Z,5.07
2018-10-12T09:06:30.138Z,5.37
2018-10-12T09:08:58.659Z,6.13
2018-10-12T09:11:27.038Z,7.87
2018-10-12T09:13:55.460Z,4.77
2018-10-12T09:16:23.848Z,10.73
2018-10-12T09:18:52.250Z,6.00
2018-10-12T09:21:20.615Z,4.20
2018-10-12T09:23:48.959Z,8.70
2018-10-12T09:26:17.387Z,5.40
2018-10-12T09:28:45.758Z,6.30
2018-10-12T09:31:14.173Z,6.70
2018-10-12T09:33:42.590Z,13.33
2018-10-12T09:36:11.027Z,12.60
2018-10-12T09:38:39.414Z,5.33
2018-10-12T09:41:07.842Z,5.97
2018-10-12T09:43:36.206Z,4.33
2018-10-12T09:46:04.632Z,4.53
2018-10-12T09:48:33.020Z,6.03
2018-10-12T09:51:01.488Z,4.97
2018-10-12T09:53:30.736Z,7.80
2018-10-12T09:55:59.259Z,8.83
2018-10-12T09:58:27.596Z,6.33
2018-10-12T10:01:01.125Z,11.17
2018-10-12T10:03:34.925Z,4.17
2018-10-12T10:06:03.301Z,7.83
2018-10-12T10:08:32.004Z,4.30
2018-10-12T10:11:00.227Z,6.27
2018-10-12T10:13:28.566Z,6.57
2018-10-12T10:15:57.032Z,8.00
2018-10-12T10:18:25.677Z,10.03
2018-10-12T10:20:54.099Z,4.50
2018-10-12T10:23:22.501Z,7.17
2018-10-12T10:25:50.961Z,4.20
2018-10-12T10:28:19.420Z,10.60
2018-10-12T10:30:47.784Z,5.97
2018-10-12T10:33:16.216Z,6.63
2018-10-12T10:35:44.633Z,5.30
2018-10-12T10:38:13.046Z,7.00
2018-10-12T10:40:41.493Z,4.30
2018-10-12T10:43:09.835Z,4.50
2018-10-12T10:45:38.324Z,8.73
2018-10-12T10:48:06.811Z,6.10
2018-10-12T10:50:35.239Z,6.33
2018-10-12T10:53:03.645Z,6.77
2018-10-12T10:55:32.075Z,6.97
2018-10-12T10:58:00.507Z,5.90
2018-10-12T11:00:28.935Z,6.47
2018-10-12T11:02:57.458Z,4.93
2018-10-12T11:05:25.825Z,3.83
2018-10-12T11:07:54.213Z,6.43
2018-10-12T11:10:22.662Z,8.83
2018-10-12T11:12:51.258Z,3.70
2018-10-12T11:15:19.629Z,6.83
2018-10-12T11:17:48.125Z,4.13
2018-10-12T11:20:16.643Z,5.60
2018-10-12T11:22:45.338Z,4.77
2018-10-12T11:25:13.703Z,3.93
2018-10-12T11:27:42.089Z,4.60
2018-10-12T11:30:10.496Z,9.57
2018-10-12T11:32:38.879Z,4.87
2018-10-12T11:35:07.500Z,5.27
2018-10-12T11:37:35.908Z,6.53
2018-10-12T11:40:04.324Z,8.50
2018-10-12T11:43:40.321Z,3.60
2018-10-12T11:46:08.867Z,4.50
2018-10-12T11:48:37.336Z,4.27
2018-10-12T11:51:05.744Z,5.87
2018-10-12T11:53:34.246Z,3.77
2018-10-12T11:56:02.645Z,4.50
2018-10-12T11:58:31.201Z,4.03
2018-10-12T12:00:59.681Z,4.90
2018-10-12T12:03:28.199Z,11.10
2018-10-12T12:05:56.622Z,5.30
2018-10-12T12:08:24.964Z,9.63
2018-10-12T12:10:53.446Z,5.50
2018-10-12T12:13:21.848Z,6.07
2018-10-12T12:15:50.308Z,5.00
2018-10-12T12:18:18.749Z,6.43
2018-10-12T12:20:47.139Z,5.10
2018-10-12T12:23:15.567Z,5.97
2018-10-12T12:25:43.954Z,5.13
2018-10-12T12:28:12.326Z,5.93
2018-10-12T12:30:40.712Z,3.43
2018-10-12T12:33:09.153Z,5.73
2018-10-12T12:35:37.987Z,4.63
2018-10-12T12:38:05.986Z,4.10
2018-10-12T12:40:34.452Z,3.43
2018-10-12T12:43:02.800Z,4.90
2018-10-12T12:45:31.212Z,3.30
2018-10-12T12:48:00.024Z,3.87
2018-10-12T12:50:28.061Z,5.43
2018-10-12T12:52:56.473Z,5.03
2018-10-12T12:55:24.876Z,3.63
2018-10-12T12:57:53.220Z,5.57
2018-10-12T13:00:21.568Z,4.30
2018-10-12T13:02:49.970Z,5.20
2018-10-12T13:05:18.433Z,5.63
2018-10-12T13:07:46.886Z,7.37
2018-10-12T13:10:15.451Z,8.70
2018-10-12T13:12:43.841Z,3.60
2018-10-12T13:15:12.243Z,6.50
2018-10-12T13:17:40.832Z,4.90
2018-10-12T13:20:09.275Z,8.53
2018-10-12T13:22:37.749Z,3.33
2018-10-12T13:25:06.301Z,5.73
2018-10-12T13:27:36.616Z,5.07
2018-10-12T13:30:05.134Z,6.07
2018-10-12T13:32:33.696Z,6.20
2018-10-12T13:35:02.057Z,5.73
2018-10-12T13:37:30.499Z,4.03
2018-10-12T13:39:58.870Z,4.80
2018-10-12T13:42:27.507Z,3.70
2018-10-12T13:44:55.954Z,5.90
2018-10-12T13:47:24.462Z,6.40
2018-10-12T13:49:52.870Z,7.03
2018-10-12T13:52:21.301Z,4.00
2018-10-12T13:54:49.739Z,3.83
2018-10-12T13:57:18.118Z,4.67
2018-10-12T13:59:46.527Z,4.23
2018-10-12T14:02:14.884Z,3.67
2018-10-12T14:04:43.406Z,6.90
2018-10-12T14:07:11.829Z,4.27
2018-10-12T14:09:40.225Z,4.03
2018-10-12T14:12:08.743Z,5.20
2018-10-12T14:14:37.145Z,4.73
2018-10-12T14:17:05.601Z,3.67
2018-10-12T14:19:34.094Z,4.40
2018-10-12T14:22:02.547Z,3.33
2018-10-12T14:24:30.904Z,10.13
2018-10-12T14:26:59.361Z,10.73
2018-10-12T14:29:27.838Z,4.20
2018-10-12T14:31:56.268Z,4.13
2018-10-12T14:34:24.658Z,3.20
2018-10-12T14:36:53.191Z,6.80
2018-10-12T14:39:21.677Z,4.30
2018-10-12T14:41:50.082Z,3.80
2018-10-12T14:44:18.572Z,4.60
2018-10-12T14:46:46.934Z,3.60
2018-10-12T14:49:15.298Z,3.90
2018-10-12T14:51:43.776Z,7.00
2018-10-12T14:54:12.144Z,3.50
2018-10-12T14:56:40.652Z,3.47
2018-10-12T14:59:09.152Z,6.67
2018-10-12T15:01:37.524Z,9.43
2018-10-12T15:04:06.105Z,7.97
2018-10-12T15:06:34.520Z,7.57
2018-10-12T15:09:02.926Z,4.53
2018-10-12T15:11:31.360Z,3.20
2018-10-12T15:13:59.736Z,7.67
2018-10-12T15:16:28.138Z,6.00
2018-10-12T15:18:56.557Z,5.63
2018-10-12T15:21:25.184Z,9.63
2018-10-12T15:23:53.640Z,8.00
2018-10-12T15:26:22.039Z,5.40
2018-10-12T15:28:50.619Z,6.50
2018-10-12T15:31:19.009Z,3.67
2018-10-12T15:33:47.578Z,7.83
2018-10-12T15:36:16.151Z,8.37
2018-10-12T15:38:44.727Z,5.40
2018-10-12T15:41:13.181Z,3.30
2018-10-12T15:43:41.641Z,5.30
2018-10-12T15:46:10.050Z,3.90
2018-10-12T15:48:38.514Z,5.67
2018-10-12T15:51:07.068Z,5.30
2018-10-12T15:53:35.445Z,3.63
2018-10-12T15:56:03.888Z,6.30
2018-10-12T15:58:32.301Z,5.00
2018-10-12T16:01:00.806Z,3.10
2018-10-12T16:03:29.202Z,4.50
2018-10-12T16:05:57.613Z,4.50
2018-10-12T16:08:26.016Z,7.00
2018-10-12T16:10:54.539Z,4.70
2018-10-12T16:13:23.035Z,8.43
2018-10-12T16:15:51.424Z,3.67
2018-10-12T16:18:19.826Z,3.90
2018-10-12T16:20:48.504Z,5.23
2018-10-12T16:23:17.181Z,3.93
2018-10-12T16:25:57.983Z,4.30
2018-10-12T16:28:26.449Z,4.70
2018-10-12T16:30:55.472Z,5.17
2018-10-12T16:33:24.070Z,5.27
2018-10-12T16:35:53.749Z,10.53
2018-10-12T16:38:22.180Z,5.10
2018-10-12T16:40:50.660Z,5.47
2018-10-12T16:43:19.071Z,4.80
2018-10-12T16:45:48.843Z,3.70
2018-10-12T16:48:17.278Z,4.23
2018-10-12T16:50:45.708Z,7.03
2018-10-12T16:53:14.325Z,7.73
2018-10-12T16:55:42.755Z,6.93
2018-10-12T16:58:12.426Z,12.17
2018-10-12T17:00:40.993Z,8.50
2018-10-12T17:03:09.390Z,3.73
2018-10-12T17:05:37.790Z,8.07
2018-10-12T17:08:06.306Z,5.07
2018-10-12T17:10:35.237Z,4.03
2018-10-12T17:13:03.709Z,5.30
2018-10-12T17:15:32.124Z,6.17
2018-10-12T17:18:01.260Z,4.97
2018-10-12T17:20:29.847Z,7.10
2018-10-12T17:22:58.438Z,7.00
2018-10-12T17:25:26.961Z,6.87
2018-10-12T17:27:55.528Z,5.17
2018-10-12T17:30:24.091Z,6.73
2018-10-12T17:32:52.512Z,5.07
2018-10-12T17:35:20.930Z,5.17
2018-10-12T17:37:49.447Z,4.13
2018-10-12T17:40:17.949Z,5.57
2018-10-12T17:42:46.411Z,4.73
2018-10-12T17:45:14.825Z,9.47
2018-10-12T17:47:43.309Z,8.83
2018-10-12T17:50:11.824Z,4.70
2018-10-12T17:52:40.257Z,4.20
2018-10-12T17:55:08.669Z,4.60
2018-10-12T17:57:37.209Z,5.20
2018-10-12T18:00:06.212Z,7.13
2018-10-12T18:02:34.727Z,4.73
2018-10-12T18:05:03.188Z,4.03
2018-10-12T18:07:31.671Z,4.70
2018-10-12T18:10:00.136Z,7.60
2018-10-12T18:12:28.586Z,4.33
2018-10-12T18:14:57.080Z,8.37
2018-10-12T18:17:25.523Z,5.17
2018-10-12T18:19:53.992Z,6.43
2018-10-12T18:22:22.360Z,5.63
2018-10-12T18:24:50.759Z,7.10
2018-10-12T18:27:19.200Z,6.53
2018-10-12T18:29:47.558Z,6.30
2018-10-12T18:32:16.033Z,6.67
2018-10-12T18:34:44.504Z,7.03
2018-10-12T18:37:12.889Z,6.83
2018-10-12T18:39:41.320Z,5.50
2018-10-12T18:42:09.815Z,8.73
2018-10-12T18:44:38.211Z,5.57
2018-10-12T18:47:06.780Z,16.07
2018-10-12T18:49:35.185Z,6.53
2018-10-12T18:52:03.629Z,7.80
2018-10-12T18:54:32.165Z,5.57
2018-10-12T18:57:00.596Z,10.90
2018-10-12T18:59:29.074Z,6.00
2018-10-12T19:01:57.488Z,5.10
2018-10-12T19:04:25.936Z,6.90
2018-10-12T19:06:54.238Z,5.97
2018-10-12T19:09:22.636Z,8.00
2018-10-12T19:11:51.077Z,4.90
2018-10-12T19:14:19.509Z,8.63
2018-10-12T19:16:47.923Z,5.47
2018-10-12T19:19:16.312Z,5.50
2018-10-12T19:21:44.769Z,6.07
2018-10-12T19:24:13.324Z,10.20
2018-10-12T19:26:41.726Z,6.10
2018-10-12T19:29:10.040Z,7.53
2018-10-12T19:31:38.641Z,6.90
2018-10-12T19:34:07.001Z,5.23
2018-10-12T19:36:35.592Z,8.20
2018-10-12T19:39:05.470Z,4.77
2018-10-12T19:41:33.926Z,6.10
2018-10-12T19:44:02.382Z,4.90
2018-10-12T19:46:30.820Z,5.93
2018-10-12T19:48:59.258Z,6.43
2018-10-12T19:51:27.650Z,6.47
2018-10-12T19:53:56.108Z,5.27
2018-10-12T19:56:24.859Z,5.97
2018-10-12T19:58:53.267Z,8.03
2018-10-12T20:01:21.797Z,8.13
2018-10-12T20:03:50.264Z,10.40
2018-10-12T20:06:18.701Z,6.93
2018-10-12T20:08:47.112Z,11.00
2018-10-12T20:11:15.524Z,8.43
2018-10-12T20:13:44.074Z,8.80
2018-10-12T20:16:12.447Z,10.80
2018-10-12T20:18:40.879Z,8.50
2018-10-12T20:21:09.299Z,6.43
2018-10-12T20:23:37.693Z,9.93
2018-10-12T20:26:06.281Z,14.23
2018-10-12T20:28:34.767Z,9.87
2018-10-12T20:31:03.078Z,7.63
2018-10-12T20:33:31.497Z,5.70
2018-10-12T20:36:00.153Z,7.37
2018-10-12T20:38:28.583Z,6.00
2018-10-12T20:40:57.091Z,6.10
2018-10-12T20:43:25.505Z,6.20
2018-10-12T20:45:53.988Z,5.67
2018-10-12T20:48:22.602Z,5.00
2018-10-12T20:50:51.055Z,5.00
2018-10-12T20:53:19.458Z,4.37
2018-10-12T20:55:47.872Z,6.13
2018-10-12T20:58:16.997Z,5.23
2018-10-12T21:00:45.817Z,5.60
2018-10-12T21:03:14.187Z,6.70
2018-10-12T21:05:43.090Z,7.00
2018-10-12T21:08:11.457Z,5.60
2018-10-12T21:10:39.901Z,8.30
2018-10-12T21:13:08.460Z,5.93
2018-10-12T21:15:36.882Z,11.70
2018-10-12T21:18:05.661Z,8.60
2018-10-12T21:20:34.067Z,8.03
2018-10-12T21:23:02.543Z,7.43
2018-10-12T21:25:30.945Z,10.60
2018-10-12T21:27:59.276Z,6.70
2018-10-12T21:30:27.700Z,6.50
2018-10-12T21:32:56.211Z,7.60
2018-10-12T21:35:24.804Z,8.10
2018-10-12T21:37:53.153Z,6.93
2018-10-12T21:40:21.639Z,10.37
2018-10-12T21:42:50.000Z,6.77
2018-10-12T21:45:18.419Z,7.17
2018-10-12T21:47:46.805Z,9.03
2018-10-12T21:50:15.166Z,8.50
2018-10-12T21:52:43.596Z,7.57
2018-10-12T21:55:11.995Z,7.07
2018-10-12T21:57:40.434Z,6.33
2018-10-12T22:00:08.983Z,7.20
2018-10-12T22:02:37.281Z,10.40
2018-10-12T22:05:05.643Z,20.93
2018-10-12T22:07:34.019Z,13.77
2018-10-12T22:10:02.499Z,11.33
2018-10-12T22:12:30.877Z,13.20
2018-10-12T22:14:59.284Z,8.17
2018-10-12T22:17:27.732Z,11.33
2018-10-12T22:19:56.085Z,12.73
2018-10-12T22:22:24.480Z,9.80
2018-10-12T22:24:52.856Z,11.50
2018-10-12T22:27:21.190Z,9.37
2018-10-12T22:29:49.621Z,9.43
2018-10-12T22:32:18.032Z,12.17
2018-10-12T22:34:46.422Z,10.43
2018-10-12T22:37:14.884Z,11.20
2018-10-12T22:39:43.805Z,10.40
2018-10-12T22:42:13.164Z,8.77
2018-10-12T22:44:41.606Z,10.70
2018-10-12T22:47:10.622Z,20.00
2018-10-12T22:49:39.181Z,8.67
2018-10-12T22:52:07.658Z,8.70
2018-10-12T22:54:36.277Z,14.83
2018-10-12T22:57:04.650Z,8.80
2018-10-12T22:59:33.039Z,11.40
2018-10-12T23:02:01.466Z,10.37
2018-10-12T23:04:29.920Z,6.67
2018-10-12T23:06:58.294Z,8.40
2018-10-12T23:09:26.606Z,8.90
2018-10-12T23:11:54.980Z,9.53
2018-10-12T23:14:23.449Z,8.00
2018-10-12T23:16:51.871Z,10.07
2018-10-12T23:19:20.280Z,11.50
2018-10-12T23:21:48.624Z,9.57
2018-10-12T23:24:16.975Z,7.37
2018-10-12T23:26:45.312Z,9.80
2018-10-12T23:29:13.664Z,9.00
2018-10-12T23:31:42.029Z,8.70
2018-10-12T23:34:10.551Z,11.20
2018-10-12T23:36:38.909Z,7.40
2018-10-12T23:39:08.522Z,6.77
2018-10-12T23:41:36.984Z,8.97
2018-10-12T23:44:05.793Z,7.63
2018-10-12T23:46:34.169Z,6.50
2018-10-12T23:49:02.634Z,7.90
2018-10-12T23:51:31.140Z,6.50
2018-10-12T23:53:59.645Z,8.37
2018-10-12T23:56:28.052Z,9.10
2018-10-12T23:58:56.401Z,9.63
